Venedocia, OH (45894)

11:55 AM EDT on October 24, 2014 (GMT -0400)
N1ICS - Ridge Township, OH | Change Station
CLOSE
Current Station
Personal Weather Station
Location: Van Wert, OH
Elevation: 784 ft
Nearby Weather Stations

Elev 784 ft 40.85 °N, 84.48 °W | Updated 19 seconds ago

Partly Cloudy
Partly Cloudy
73.6 °F
Feels Like 77 °F
N
6.9
Wind Variable Wind from SW
Gusts 7.0 mph

Today
High -- | Low -- °F
--% Chance of Precip.
Yesterday
High -- | Low -- °F
Precip. -- in
7:59 AM 6:44 PM
New Moon, 1% visible
Pressure 30.11 in
Visibility 5.0 miles
Clouds Clear
Heat Index 77 °F
Dew Point 46 °F
Humidity 38%
Rainfall 0.00 in
Snow Depth Not available.
UV 3 out of 12
Pollen 1.10 out of 12
Air Quality Not available.
Flu Activity Sporadic
METAR KAOH 241453Z AUTO 24005KT 5SM HZ CLR 13/06 A3010 RMK AO2 SLP195 T01280056 58000

More Conditions Fewer Conditions

Pressure 30.11 in
Visibility 5.0 miles
Clouds Clear
Heat Index 77 °F
Dew Point 46 °F
Humidity 38%
Rainfall 0.00 in
Snow Depth Not available.
UV 3 out of 12
Pollen 1.10 out of 12
Air Quality Not available.
Flu Activity Sporadic
METAR KAOH 241453Z AUTO 24005KT 5SM HZ CLR 13/06 A3010 RMK AO2 SLP195 T01280056 58000

More Conditions Fewer Conditions

10-Day Weather Forecast

Almanac

Astronomy

Oct. 24, 2014 Rise Set
Actual Time 7:59 AM EDT 6:44 PM EDT
Civil Twilight 7:31 AM EDT 7:12 PM EDT
Nautical Twilight 6:59 AM EDT 7:44 PM EDT
Astronomical Twilight 6:27 AM EDT 8:16 PM EDT
Moon 8:37 AM EDT 7:23 PM EDT
Length of Visible Light 11h 41m
Length of Day
10h 45m
Tomorrow will be 2m 30s shorter.
New Moon, 1% of the Moon is Illuminated
Today
New Moon
Oct 30
First Quarter
Nov 6
Full
Nov 14
Last Quarter
Nov 22
New

Today's Extremes

State Highs State Lows

Community

WunderPhotos

Upload Photos

1,764,590 photos uploaded!

WunderBlogs® & News

Nearby

Snow Depth

Station Depth Elevation
No new snow has been reported.

Earthquake Activity

City Distance Mag. Time & Date
No recent earthquake activity has been reported nearby.
Minimum magnitude displayed is 2.5.

Coastal Water Temperatures

Place Temperature
No Stations Reporting

Nearby Weather Stations